createdAt,value
2018-03-19T00:02:17.801Z,4.93
2018-03-19T00:04:46.223Z,3.97
2018-03-19T00:07:14.627Z,4.53
2018-03-19T00:09:43.027Z,4.85
2018-03-19T00:12:12.217Z,4.12
2018-03-19T00:14:41.580Z,4.97
2018-03-19T00:17:10.112Z,4.50
2018-03-19T00:19:39.282Z,4.82
2018-03-19T00:22:07.656Z,4.60
2018-03-19T00:24:36.052Z,5.35
2018-03-19T00:27:05.221Z,4.50
2018-03-19T00:29:33.588Z,4.45
2018-03-19T00:32:02.029Z,4.07
2018-03-19T00:34:30.381Z,4.12
2018-03-19T00:36:58.788Z,4.40
2018-03-19T00:39:27.162Z,5.70
2018-03-19T00:41:56.292Z,5.03
2018-03-19T00:44:24.757Z,4.32
2018-03-19T00:46:53.271Z,4.90
2018-03-19T00:49:21.688Z,4.20
2018-03-19T00:51:50.234Z,4.05
2018-03-19T00:54:18.660Z,4.28
2018-03-19T00:56:47.832Z,4.95
2018-03-19T00:59:16.254Z,5.50
2018-03-19T01:01:45.400Z,5.12
2018-03-19T01:04:13.791Z,4.82
2018-03-19T01:06:42.239Z,5.40
2018-03-19T01:09:10.639Z,4.90
2018-03-19T01:11:39.082Z,5.47
2018-03-19T01:14:07.560Z,5.25
2018-03-19T01:16:35.968Z,5.97
2018-03-19T01:19:04.328Z,5.30
2018-03-19T01:21:32.723Z,4.47
2018-03-19T01:24:01.720Z,5.57
2018-03-19T01:26:30.153Z,5.57
2018-03-19T01:28:59.320Z,4.50
2018-03-19T01:31:27.742Z,6.60
2018-03-19T01:33:56.988Z,4.00
2018-03-19T01:36:25.435Z,5.90
2018-03-19T01:38:53.810Z,4.32
2018-03-19T01:41:22.244Z,5.80
2018-03-19T01:43:50.627Z,5.28
2018-03-19T01:46:19.075Z,5.50
2018-03-19T01:48:47.520Z,5.00
2018-03-19T01:51:16.719Z,5.40
2018-03-19T01:53:45.858Z,5.57
2018-03-19T01:56:14.283Z,5.25
2018-03-19T01:58:42.723Z,6.05
2018-03-19T02:01:11.116Z,5.55
2018-03-19T02:03:39.509Z,5.62
2018-03-19T02:06:07.907Z,5.55
2018-03-19T02:08:37.075Z,5.53
2018-03-19T02:11:05.543Z,5.65
2018-03-19T02:13:33.986Z,6.30
2018-03-19T02:16:03.896Z,5.07
2018-03-19T02:18:33.087Z,5.43
2018-03-19T02:21:03.171Z,4.95
2018-03-19T02:23:31.541Z,4.68
2018-03-19T02:25:59.919Z,4.53
2018-03-19T02:28:28.282Z,5.45
2018-03-19T02:30:56.691Z,6.12
2018-03-19T02:33:25.079Z,6.93
2018-03-19T02:35:53.460Z,5.72
2018-03-19T02:38:21.867Z,5.28
2018-03-19T02:40:51.040Z,5.97
2018-03-19T02:43:20.360Z,4.60
2018-03-19T02:45:48.735Z,5.85
2018-03-19T02:48:17.188Z,5.37
2018-03-19T02:50:45.642Z,6.47
2018-03-19T02:53:14.034Z,5.15
2018-03-19T02:55:42.427Z,5.78
2018-03-19T02:58:10.860Z,5.97
2018-03-19T03:00:40.047Z,6.00
2018-03-19T03:03:09.214Z,4.85
2018-03-19T03:05:37.775Z,4.87
2018-03-19T03:08:06.190Z,5.60
2018-03-19T03:10:34.575Z,5.90
2018-03-19T03:13:03.008Z,6.20
2018-03-19T03:15:31.391Z,6.62
2018-03-19T03:17:59.807Z,5.93
2018-03-19T03:20:28.175Z,5.90
2018-03-19T03:22:56.655Z,5.70
2018-03-19T03:25:25.109Z,6.28
2018-03-19T03:27:53.509Z,5.10
2018-03-19T03:30:21.922Z,8.07
2018-03-19T03:32:50.348Z,6.68
2018-03-19T03:35:18.728Z,6.05
2018-03-19T03:37:47.112Z,5.47
2018-03-19T03:40:15.573Z,5.15
2018-03-19T03:42:44.791Z,7.10
2018-03-19T03:45:13.192Z,5.87
2018-03-19T03:47:41.587Z,6.28
2018-03-19T03:50:09.981Z,7.00
2018-03-19T03:52:38.538Z,6.03
2018-03-19T03:55:06.942Z,6.60
2018-03-19T03:57:35.335Z,6.55
2018-03-19T04:00:04.504Z,5.70
2018-03-19T04:02:32.883Z,5.45
2018-03-19T04:05:01.304Z,5.72
2018-03-19T04:07:30.511Z,6.05
2018-03-19T04:09:58.938Z,5.95
2018-03-19T04:12:27.489Z,5.70
2018-03-19T04:14:55.959Z,5.40
2018-03-19T04:17:24.366Z,6.07
2018-03-19T04:19:52.839Z,6.62
2018-03-19T04:22:21.451Z,5.45
2018-03-19T04:24:49.842Z,5.40
2018-03-19T04:27:18.256Z,6.82
2018-03-19T04:29:47.391Z,6.50
2018-03-19T04:32:15.780Z,6.80
2018-03-19T04:34:44.181Z,7.07
2018-03-19T04:37:12.711Z,5.68
2018-03-19T04:39:41.090Z,6.57
2018-03-19T04:42:09.491Z,7.00
2018-03-19T04:44:37.898Z,7.43
2018-03-19T04:47:06.286Z,6.35
2018-03-19T04:49:34.708Z,6.87
2018-03-19T04:52:03.119Z,6.30
2018-03-19T04:54:31.609Z,5.40
2018-03-19T04:57:00.030Z,6.60
2018-03-19T04:59:29.184Z,6.45
2018-03-19T05:01:57.601Z,6.70
2018-03-19T05:04:25.986Z,6.97
2018-03-19T05:06:54.482Z,6.65
2018-03-19T05:09:23.967Z,4.50
2018-03-19T05:11:52.358Z,8.15
2018-03-19T05:14:21.751Z,7.68
2018-03-19T05:16:50.086Z,6.05
2018-03-19T05:19:18.481Z,6.40
2018-03-19T05:21:46.869Z,6.45
2018-03-19T05:24:15.327Z,5.43
2018-03-19T05:26:43.716Z,6.72
2018-03-19T05:29:12.118Z,6.65
2018-03-19T05:31:40.502Z,6.65
2018-03-19T05:34:09.041Z,6.75
2018-03-19T05:36:37.680Z,6.85
2018-03-19T05:39:06.073Z,5.75
2018-03-19T05:41:35.275Z,5.87
2018-03-19T05:44:04.448Z,8.23
2018-03-19T05:46:32.881Z,7.95
2018-03-19T05:49:01.277Z,6.37
2018-03-19T05:51:29.790Z,5.15
2018-03-19T05:53:58.192Z,7.78
2018-03-19T05:56:27.368Z,7.10
2018-03-19T05:58:56.622Z,6.35
2018-03-19T06:01:25.208Z,7.53
2018-03-19T06:03:53.625Z,6.65
2018-03-19T06:06:22.012Z,7.28
2018-03-19T06:08:50.407Z,8.35
2018-03-19T06:11:19.621Z,7.55
2018-03-19T06:13:48.842Z,6.62
2018-03-19T06:16:17.231Z,5.50
2018-03-19T06:18:45.658Z,7.95
2018-03-19T06:21:14.051Z,7.53
2018-03-19T06:23:43.156Z,7.12
2018-03-19T06:26:12.346Z,6.90
2018-03-19T06:28:41.636Z,6.60
2018-03-19T06:31:10.793Z,5.82
2018-03-19T06:33:39.214Z,7.30
2018-03-19T06:36:08.378Z,5.72
2018-03-19T06:38:36.767Z,6.32
2018-03-19T06:41:05.160Z,7.90
2018-03-19T06:43:33.612Z,7.97
2018-03-19T06:46:01.998Z,6.45
2018-03-19T06:48:30.422Z,6.75
2018-03-19T06:50:59.575Z,6.65
2018-03-19T06:53:27.997Z,6.05
2018-03-19T06:55:57.145Z,8.10
2018-03-19T06:58:25.531Z,7.20
2018-03-19T07:00:53.930Z,7.43
2018-03-19T07:03:22.299Z,7.20
2018-03-19T07:05:50.688Z,7.05
2018-03-19T07:08:19.078Z,6.37
2018-03-19T07:10:47.466Z,6.15
2018-03-19T07:13:16.616Z,6.47
2018-03-19T07:15:46.007Z,8.00
2018-03-19T07:18:14.403Z,7.47
2018-03-19T07:20:42.799Z,7.35
2018-03-19T07:23:11.205Z,7.07
2018-03-19T07:25:40.359Z,6.82
2018-03-19T07:28:08.793Z,6.82
2018-03-19T07:30:38.011Z,7.15
2018-03-19T07:33:06.420Z,6.97
2018-03-19T07:35:34.891Z,7.55
2018-03-19T07:38:03.397Z,7.00
2018-03-19T07:40:31.779Z,7.47
2018-03-19T07:43:00.162Z,7.50
2018-03-19T07:45:28.592Z,7.40
2018-03-19T07:47:58.063Z,7.53
2018-03-19T07:50:26.473Z,8.77
2018-03-19T07:52:55.654Z,7.30
2018-03-19T07:55:24.033Z,6.55
2018-03-19T07:57:52.441Z,6.95
2018-03-19T08:00:21.589Z,7.00
2018-03-19T08:02:50.096Z,8.00
2018-03-19T08:05:18.521Z,8.35
2018-03-19T08:07:46.903Z,7.57
2018-03-19T08:10:15.364Z,8.23
2018-03-19T08:12:43.770Z,7.82
2018-03-19T08:15:12.167Z,7.80
2018-03-19T08:17:40.686Z,8.82
2018-03-19T08:20:09.136Z,6.95
2018-03-19T08:22:37.615Z,6.60
2018-03-19T08:25:06.030Z,6.40
2018-03-19T08:27:35.199Z,8.40
2018-03-19T08:30:03.685Z,7.00
2018-03-19T08:32:32.050Z,6.78
2018-03-19T08:35:00.438Z,7.68
2018-03-19T08:37:29.723Z,6.28
2018-03-19T08:39:58.163Z,8.60
2018-03-19T08:42:27.382Z,7.47
2018-03-19T08:44:55.827Z,7.60
2018-03-19T08:47:24.222Z,9.27
2018-03-19T08:49:52.620Z,8.45
2018-03-19T08:52:21.002Z,8.25
2018-03-19T08:54:49.542Z,8.05
2018-03-19T08:57:18.714Z,7.57
2018-03-19T08:59:48.132Z,7.78
2018-03-19T09:02:17.587Z,8.50
2018-03-19T09:04:46.054Z,7.70
2018-03-19T09:07:14.687Z,8.48
2018-03-19T09:09:43.126Z,8.50
2018-03-19T09:12:11.511Z,9.15
2018-03-19T09:14:39.979Z,8.82
2018-03-19T09:17:08.467Z,7.62
2018-03-19T09:19:36.860Z,8.07
2018-03-19T09:22:05.242Z,7.65
2018-03-19T09:24:33.644Z,8.85
2018-03-19T09:27:02.026Z,9.00
2018-03-19T09:29:30.419Z,9.25
2018-03-19T09:31:58.832Z,7.70
2018-03-19T09:34:28.023Z,7.18
2018-03-19T09:36:57.264Z,8.90
2018-03-19T09:39:25.662Z,8.75
2018-03-19T09:41:54.051Z,8.55
2018-03-19T09:44:22.449Z,9.45
2018-03-19T09:46:50.841Z,7.85
2018-03-19T09:49:19.387Z,8.63
2018-03-19T09:51:48.068Z,8.43
2018-03-19T09:54:16.545Z,10.20
2018-03-19T09:56:45.016Z,8.57
2018-03-19T09:59:13.608Z,8.63
2018-03-19T10:01:42.140Z,8.03
2018-03-19T10:04:11.373Z,7.68
2018-03-19T10:06:39.849Z,8.57
2018-03-19T10:09:08.491Z,10.10
2018-03-19T10:11:37.185Z,8.55
2018-03-19T10:14:16.144Z,9.10
2018-03-19T10:16:44.558Z,8.20
2018-03-19T10:19:13.033Z,8.67
2018-03-19T10:21:41.538Z,8.43
2018-03-19T10:24:10.649Z,8.17
2018-03-19T10:26:39.352Z,8.23
2018-03-19T10:29:07.891Z,9.27
2018-03-19T10:31:37.202Z,8.37
2018-03-19T10:34:05.708Z,8.93
2018-03-19T10:36:34.075Z,8.80
2018-03-19T10:39:02.455Z,8.93
2018-03-19T10:41:30.843Z,9.47
2018-03-19T10:43:59.409Z,8.57
2018-03-19T10:46:27.974Z,8.60
2018-03-19T10:48:56.352Z,8.27
2018-03-19T10:51:24.800Z,8.17
2018-03-19T10:53:53.324Z,8.10
2018-03-19T10:56:21.815Z,8.23
2018-03-19T10:58:50.212Z,8.63
2018-03-19T11:01:23.948Z,9.30
2018-03-19T11:03:57.723Z,7.90
2018-03-19T11:06:31.500Z,8.03
2018-03-19T11:09:05.389Z,8.00
2018-03-19T11:11:34.114Z,8.73
2018-03-19T11:14:02.506Z,8.83
2018-03-19T11:16:30.964Z,8.50
2018-03-19T11:18:59.344Z,8.50
2018-03-19T11:21:27.746Z,8.13
2018-03-19T11:23:56.908Z,8.50
2018-03-19T11:26:25.316Z,8.30
2018-03-19T11:28:53.723Z,8.47
2018-03-19T11:31:22.920Z,8.30
2018-03-19T11:33:51.293Z,8.67
2018-03-19T11:36:19.720Z,7.17
2018-03-19T11:38:48.089Z,9.23
2018-03-19T11:41:16.483Z,8.30
2018-03-19T11:43:44.905Z,7.10
2018-03-19T11:46:13.411Z,8.03
2018-03-19T11:48:42.579Z,7.57
2018-03-19T11:51:11.021Z,8.40
2018-03-19T11:53:39.598Z,7.23
2018-03-19T11:56:08.092Z,6.67
2018-03-19T11:58:36.484Z,6.75
2018-03-19T12:01:04.884Z,7.13
2018-03-19T12:03:33.246Z,7.73
2018-03-19T12:06:02.121Z,8.80
2018-03-19T12:08:30.500Z,8.73
2018-03-19T12:10:58.914Z,8.50
2018-03-19T12:13:27.328Z,8.45
2018-03-19T12:15:56.675Z,8.95
2018-03-19T12:18:25.158Z,8.70
2018-03-19T12:20:53.607Z,6.62
2018-03-19T12:23:22.017Z,6.80
2018-03-19T12:25:50.427Z,8.10
2018-03-19T12:28:18.841Z,7.35
2018-03-19T12:30:48.047Z,7.72
2018-03-19T12:33:17.506Z,7.40
2018-03-19T12:35:45.912Z,9.63
2018-03-19T12:38:14.298Z,6.35
2018-03-19T12:40:42.691Z,6.05
2018-03-19T12:43:11.845Z,6.90
2018-03-19T12:45:41.028Z,6.35
2018-03-19T12:48:09.424Z,6.45
2018-03-19T12:50:37.895Z,6.00
2018-03-19T12:53:06.330Z,7.50
2018-03-19T12:55:35.773Z,6.82
2018-03-19T12:58:04.182Z,6.03
2018-03-19T13:00:32.626Z,6.20
2018-03-19T13:03:02.790Z,7.50
2018-03-19T13:05:31.338Z,7.60
2018-03-19T13:07:59.732Z,7.87
2018-03-19T13:10:29.090Z,8.53
2018-03-19T13:12:57.548Z,8.17
2018-03-19T13:15:25.932Z,8.20
2018-03-19T13:17:54.428Z,8.87
2018-03-19T13:20:23.671Z,7.32
2018-03-19T13:22:52.153Z,8.57
2018-03-19T13:25:20.544Z,8.27
2018-03-19T13:27:49.169Z,8.23
2018-03-19T13:30:18.977Z,8.33
2018-03-19T13:32:47.366Z,7.40
2018-03-19T13:35:15.787Z,8.07
2018-03-19T13:37:44.259Z,8.40
2018-03-19T13:40:12.754Z,7.97
2018-03-19T13:42:41.111Z,8.17
2018-03-19T13:45:10.271Z,8.87
2018-03-19T13:47:40.384Z,7.50
2018-03-19T13:50:08.761Z,9.17
2018-03-19T13:52:37.172Z,7.80
2018-03-19T13:55:05.569Z,8.10
2018-03-19T13:57:34.792Z,8.40
2018-03-19T14:00:03.183Z,8.13
2018-03-19T14:02:31.634Z,7.40
2018-03-19T14:05:00.855Z,7.70
2018-03-19T14:07:29.340Z,7.97
2018-03-19T14:09:57.899Z,7.60
2018-03-19T14:12:26.307Z,8.47
2018-03-19T14:14:54.686Z,8.03
2018-03-19T14:17:23.076Z,8.30
2018-03-19T14:19:52.598Z,7.60
2018-03-19T14:22:21.022Z,8.23
2018-03-19T14:24:50.212Z,7.23
2018-03-19T14:27:19.421Z,7.07
2018-03-19T14:29:48.626Z,8.40
2018-03-19T14:32:17.928Z,7.33
2018-03-19T14:34:47.151Z,7.50
2018-03-19T14:37:15.662Z,8.10
2018-03-19T14:39:44.520Z,7.80
2018-03-19T14:42:13.024Z,7.60
2018-03-19T14:44:41.418Z,8.30
2018-03-19T14:47:09.915Z,8.37
2018-03-19T14:49:38.336Z,8.40
2018-03-19T14:52:07.353Z,7.63
2018-03-19T14:54:35.947Z,7.37
2018-03-19T14:57:04.369Z,7.83
2018-03-19T14:59:32.782Z,7.30
2018-03-19T15:02:01.248Z,6.93
2018-03-19T15:04:30.439Z,6.50
2018-03-19T15:06:59.528Z,6.70
2018-03-19T15:09:28.696Z,7.40
2018-03-19T15:11:58.911Z,7.87
2018-03-19T15:14:27.392Z,7.50
2018-03-19T15:16:55.977Z,7.00
2018-03-19T15:19:24.657Z,7.30
2018-03-19T15:21:53.079Z,6.70
2018-03-19T15:24:21.464Z,6.60
2018-03-19T15:26:49.997Z,6.90
2018-03-19T15:29:18.424Z,6.00
2018-03-19T15:31:46.916Z,6.60
2018-03-19T15:34:15.557Z,6.33
2018-03-19T15:36:43.978Z,6.53
2018-03-19T15:39:13.123Z,6.00
2018-03-19T15:41:41.794Z,6.50
2018-03-19T15:44:10.248Z,5.82
2018-03-19T15:46:38.755Z,6.87
2018-03-19T15:49:07.212Z,7.40
2018-03-19T15:51:35.668Z,6.03
2018-03-19T15:54:04.101Z,7.07
2018-03-19T15:56:32.574Z,6.25
2018-03-19T15:59:01.915Z,6.25
2018-03-19T16:01:30.305Z,6.55
2018-03-19T16:03:58.707Z,6.57
2018-03-19T16:06:27.911Z,5.65
2018-03-19T16:08:56.471Z,6.90
2018-03-19T16:11:24.906Z,6.75
2018-03-19T16:13:53.404Z,6.10
2018-03-19T16:16:22.538Z,6.53
2018-03-19T16:18:51.108Z,4.90
2018-03-19T16:21:19.574Z,6.62
2018-03-19T16:23:48.068Z,7.03
2018-03-19T16:26:16.490Z,6.45
2018-03-19T16:28:44.987Z,5.78
2018-03-19T16:31:13.451Z,7.50
2018-03-19T16:33:42.077Z,6.18
2018-03-19T16:36:11.245Z,6.75
2018-03-19T16:38:39.754Z,5.85
2018-03-19T16:41:08.472Z,5.65
2018-03-19T16:43:36.931Z,5.90
2018-03-19T16:46:05.413Z,5.90
2018-03-19T16:48:33.940Z,6.20
2018-03-19T16:51:02.392Z,6.30
2018-03-19T16:53:31.538Z,5.68
2018-03-19T16:56:00.105Z,5.25
2018-03-19T16:58:28.512Z,5.55
2018-03-19T17:00:57.935Z,6.03
2018-03-19T17:03:26.397Z,5.20
2018-03-19T17:05:55.267Z,5.87
2018-03-19T17:08:23.676Z,5.87
2018-03-19T17:10:52.124Z,5.62
2018-03-19T17:13:20.532Z,5.78
2018-03-19T17:15:48.906Z,6.47
2018-03-19T17:18:18.258Z,5.90
2018-03-19T17:20:46.811Z,6.10
2018-03-19T17:23:15.248Z,6.22
2018-03-19T17:25:43.688Z,6.25
2018-03-19T17:28:12.227Z,6.28
2018-03-19T17:30:40.639Z,6.62
2018-03-19T17:33:09.043Z,7.80
2018-03-19T17:35:37.464Z,6.55
2018-03-19T17:38:05.932Z,7.05
2018-03-19T17:40:35.092Z,7.00
2018-03-19T17:43:03.485Z,7.15
2018-03-19T17:45:31.901Z,5.62
2018-03-19T17:48:00.755Z,7.00
2018-03-19T17:50:29.209Z,6.68
2018-03-19T17:52:57.614Z,5.90
2018-03-19T17:55:26.202Z,7.00
2018-03-19T17:57:54.641Z,5.97
2018-03-19T18:00:23.096Z,6.72
2018-03-19T18:02:51.647Z,6.55
2018-03-19T18:05:20.110Z,6.62
2018-03-19T18:07:48.532Z,6.45
2018-03-19T18:10:17.739Z,6.65
2018-03-19T18:12:46.893Z,6.50
2018-03-19T18:15:15.332Z,7.78
2018-03-19T18:17:43.807Z,7.35
2018-03-19T18:20:12.295Z,7.30
2018-03-19T18:22:40.703Z,6.50
2018-03-19T18:25:10.232Z,6.82
2018-03-19T18:27:39.812Z,7.15
2018-03-19T18:30:08.218Z,6.55
2018-03-19T18:32:36.769Z,7.10
2018-03-19T18:35:08.754Z,8.48
2018-03-19T18:37:37.227Z,9.18
2018-03-19T18:40:05.646Z,8.55
2018-03-19T18:42:34.897Z,9.05
2018-03-19T18:45:03.356Z,10.85
2018-03-19T18:47:31.746Z,6.12
2018-03-19T18:50:00.236Z,6.62
2018-03-19T18:52:28.653Z,6.60
2018-03-19T18:54:57.059Z,9.15
2018-03-19T18:57:25.700Z,7.32
2018-03-19T18:59:54.229Z,7.57
2018-03-19T19:02:23.387Z,8.50
2018-03-19T19:04:52.129Z,7.12
2018-03-19T19:07:21.287Z,6.78
2018-03-19T19:09:50.269Z,7.35
2018-03-19T19:12:18.687Z,6.15
2018-03-19T19:14:47.052Z,6.95
2018-03-19T19:17:15.707Z,12.48
2018-03-19T19:19:44.107Z,8.10
2018-03-19T19:22:12.525Z,5.87
2018-03-19T19:24:41.743Z,11.15
2018-03-19T19:27:10.150Z,7.43
2018-03-19T19:29:38.537Z,6.75
2018-03-19T19:32:06.949Z,9.80
2018-03-19T19:34:35.539Z,6.85
2018-03-19T19:37:04.138Z,7.10
2018-03-19T19:39:33.336Z,8.52
2018-03-19T19:42:02.599Z,7.30
2018-03-19T19:44:31.124Z,6.47
2018-03-19T19:47:00.304Z,7.62
2018-03-19T19:49:28.703Z,6.37
2018-03-19T19:51:57.939Z,6.50
2018-03-19T19:54:26.408Z,6.53
2018-03-19T19:56:54.809Z,6.55
2018-03-19T19:59:23.219Z,6.57
2018-03-19T20:01:51.658Z,7.87
2018-03-19T20:04:20.203Z,8.90
2018-03-19T20:06:49.444Z,6.85
2018-03-19T20:09:17.933Z,6.60
2018-03-19T20:11:46.373Z,6.37
2018-03-19T20:14:15.549Z,5.82
2018-03-19T20:16:43.972Z,6.87
2018-03-19T20:19:12.381Z,4.82
2018-03-19T20:21:41.026Z,5.80
2018-03-19T20:24:09.828Z,5.35
2018-03-19T20:26:38.437Z,4.37
2018-03-19T20:29:06.855Z,4.80
2018-03-19T20:31:36.104Z,5.82
2018-03-19T20:34:04.534Z,5.53
2018-03-19T20:36:33.753Z,5.80
2018-03-19T20:39:02.908Z,5.45
2018-03-19T20:41:32.109Z,6.03
2018-03-19T20:44:02.233Z,5.97
2018-03-19T20:46:31.420Z,5.82
2018-03-19T20:48:59.843Z,6.70
2018-03-19T20:51:28.458Z,6.05
2018-03-19T20:53:56.992Z,5.60
2018-03-19T20:56:25.476Z,4.87
2018-03-19T20:58:54.615Z,5.03
2018-03-19T21:01:23.044Z,7.20
2018-03-19T21:03:52.204Z,5.07
2018-03-19T21:06:20.614Z,6.00
2018-03-19T21:08:49.016Z,5.65
2018-03-19T21:11:17.519Z,5.72
2018-03-19T21:13:46.948Z,5.30
2018-03-19T21:16:26.299Z,5.18
2018-03-19T21:18:55.723Z,5.87
2018-03-19T21:21:24.539Z,5.20
2018-03-19T21:23:53.824Z,4.97
2018-03-19T21:26:22.373Z,4.95
2018-03-19T21:28:50.787Z,5.25
2018-03-19T21:31:20.202Z,5.47
2018-03-19T21:33:48.821Z,5.53
2018-03-19T21:36:17.463Z,5.57
2018-03-19T21:38:45.903Z,4.37
2018-03-19T21:41:15.105Z,5.37
2018-03-19T21:43:44.330Z,4.40
2018-03-19T21:46:12.740Z,5.05
2018-03-19T21:48:41.215Z,3.90
2018-03-19T21:51:10.178Z,4.65
2018-03-19T21:53:38.677Z,5.82
2018-03-19T21:56:07.073Z,4.40
2018-03-19T21:58:35.523Z,5.30
2018-03-19T22:01:03.917Z,5.35
2018-03-19T22:03:32.316Z,4.78
2018-03-19T22:06:00.792Z,5.15
2018-03-19T22:08:29.253Z,5.10
2018-03-19T22:10:57.689Z,4.70
2018-03-19T22:13:26.425Z,4.20
2018-03-19T22:15:54.875Z,4.93
2018-03-19T22:18:23.298Z,4.80
2018-03-19T22:20:52.516Z,4.45
2018-03-19T22:23:21.685Z,5.62
2018-03-19T22:25:50.886Z,5.43
2018-03-19T22:28:20.342Z,6.90
2018-03-19T22:30:48.875Z,5.93
2018-03-19T22:33:18.011Z,5.05
2018-03-19T22:35:46.418Z,5.60
2018-03-19T22:38:14.883Z,5.07
2018-03-19T22:40:43.243Z,4.95
2018-03-19T22:43:11.757Z,6.37
2018-03-19T22:45:40.169Z,4.68
2018-03-19T22:48:09.319Z,5.78
2018-03-19T22:50:37.754Z,5.22
2018-03-19T22:53:06.164Z,4.95
2018-03-19T22:55:35.512Z,6.50
2018-03-19T22:58:03.991Z,5.90
2018-03-19T23:00:32.447Z,6.90
2018-03-19T23:03:00.909Z,5.28
2018-03-19T23:05:29.443Z,7.00
2018-03-19T23:07:57.858Z,4.20
2018-03-19T23:10:27.015Z,6.25
2018-03-19T23:12:55.507Z,4.60
2018-03-19T23:15:24.850Z,5.22
2018-03-19T23:17:54.256Z,5.85
2018-03-19T23:20:23.417Z,5.95
2018-03-19T23:22:51.818Z,5.18
2018-03-19T23:25:20.996Z,5.37
2018-03-19T23:27:49.487Z,5.25
2018-03-19T23:30:17.862Z,5.18
2018-03-19T23:32:46.818Z,6.57
2018-03-19T23:35:15.818Z,5.37
2018-03-19T23:37:44.540Z,5.20
2018-03-19T23:40:13.116Z,5.00
2018-03-19T23:42:42.815Z,5.05
2018-03-19T23:45:12.863Z,5.55
2018-03-19T23:47:41.670Z,6.40
2018-03-19T23:50:11.078Z,5.93
2018-03-19T23:52:40.880Z,5.45
2018-03-19T23:55:09.431Z,5.65
2018-03-19T23:57:38.037Z,7.25
